createdAt,value
2023-02-28T00:03:06.609Z,93.00
2023-02-28T00:08:11.884Z,93.30
2023-02-28T00:13:15.205Z,93.20
2023-02-28T00:18:18.835Z,93.40
2023-02-28T00:23:23.538Z,93.50
2023-02-28T00:28:30.286Z,93.80
2023-02-28T00:33:36.235Z,93.70
2023-02-28T00:38:44.121Z,93.90
2023-02-28T00:43:49.540Z,94.20
2023-02-28T00:48:53.889Z,94.30
2023-02-28T00:53:58.718Z,94.50
2023-02-28T00:59:02.475Z,94.70
2023-02-28T01:04:05.954Z,94.70
2023-02-28T01:09:10.884Z,95.00
2023-02-28T01:14:15.844Z,95.10
2023-02-28T01:19:18.771Z,95.30
2023-02-28T01:24:24.922Z,95.30
2023-02-28T01:29:27.990Z,95.80
2023-02-28T01:34:30.975Z,96.20
2023-02-28T01:39:36.684Z,96.30
2023-02-28T01:44:59.213Z,96.50
2023-02-28T01:50:03.104Z,96.60
2023-02-28T01:55:09.132Z,96.50
2023-02-28T02:00:15.353Z,97.10
2023-02-28T02:05:27.567Z,96.60
2023-02-28T02:10:33.712Z,96.80
2023-02-28T02:15:37.396Z,96.70
2023-02-28T02:21:24.096Z,97.00
2023-02-28T02:26:33.535Z,97.10
2023-02-28T02:31:44.592Z,97.30
2023-02-28T02:36:50.410Z,97.10
2023-02-28T02:41:57.046Z,97.50
2023-02-28T02:47:01.224Z,97.60
2023-02-28T02:52:10.153Z,98.10
2023-02-28T02:57:15.468Z,98.20
2023-02-28T03:02:18.723Z,98.60
2023-02-28T03:07:23.362Z,98.60
2023-02-28T03:12:30.592Z,98.20
2023-02-28T03:17:38.695Z,97.50
2023-02-28T03:22:50.683Z,96.70
2023-02-28T03:27:56.616Z,96.60
2023-02-28T03:33:02.191Z,98.20
2023-02-28T03:38:07.942Z,99.00
2023-02-28T03:43:12.335Z,99.10
2023-02-28T03:48:16.417Z,99.70
2023-02-28T03:53:21.449Z,99.90
2023-02-28T03:58:26.415Z,99.90
2023-02-28T04:03:29.374Z,99.90
2023-02-28T04:08:33.986Z,99.90
2023-02-28T04:13:37.326Z,99.90
2023-02-28T04:18:40.452Z,99.90
2023-02-28T04:23:44.973Z,99.90
2023-02-28T04:28:48.377Z,99.90
2023-02-28T04:33:52.431Z,99.90
2023-02-28T04:38:56.870Z,99.90
2023-02-28T04:44:00.075Z,99.90
2023-02-28T04:49:03.882Z,99.90
2023-02-28T04:54:08.553Z,99.90
2023-02-28T04:59:11.709Z,99.90
2023-02-28T05:04:14.704Z,99.90
2023-02-28T05:09:19.992Z,99.90
2023-02-28T05:14:23.239Z,99.90
2023-02-28T05:19:28.412Z,99.90
2023-02-28T05:24:33.814Z,99.90
2023-02-28T05:29:44.756Z,99.90
2023-02-28T05:34:48.814Z,99.90
2023-02-28T05:39:53.826Z,99.90
2023-02-28T05:44:57.737Z,99.90
2023-02-28T05:50:01.556Z,99.90
2023-02-28T05:55:07.802Z,99.90
2023-02-28T06:00:11.881Z,99.90
2023-02-28T06:05:20.608Z,99.90
2023-02-28T06:10:26.362Z,99.90
2023-02-28T06:15:33.311Z,99.90
2023-02-28T06:20:38.141Z,99.90
2023-02-28T06:25:42.954Z,99.90
2023-02-28T06:30:46.648Z,99.90
2023-02-28T06:35:51.344Z,99.90
2023-02-28T06:40:59.103Z,99.90
2023-02-28T06:46:04.830Z,99.90
2023-02-28T06:51:09.619Z,99.90
2023-02-28T06:56:14.918Z,99.90
2023-02-28T07:01:18.368Z,99.90
2023-02-28T07:06:23.945Z,99.90
2023-02-28T07:11:29.383Z,99.90
2023-02-28T07:16:34.863Z,99.90
2023-02-28T07:21:38.561Z,99.90
2023-02-28T07:26:46.272Z,99.90
2023-02-28T07:31:52.957Z,99.90
2023-02-28T07:36:59.317Z,99.90
2023-02-28T07:42:04.766Z,99.90
2023-02-28T07:47:12.831Z,99.90
2023-02-28T07:52:16.775Z,99.90
2023-02-28T07:57:23.438Z,99.90
2023-02-28T08:02:28.423Z,99.90
2023-02-28T08:07:32.070Z,99.90
2023-02-28T08:12:44.460Z,99.90
2023-02-28T08:17:48.340Z,99.90
2023-02-28T08:22:53.374Z,98.50
2023-02-28T08:28:03.049Z,97.40
2023-02-28T08:33:08.703Z,96.90
2023-02-28T08:38:13.944Z,95.70
2023-02-28T08:43:18.872Z,95.10
2023-02-28T08:48:24.591Z,93.70
2023-02-28T08:53:29.055Z,93.30
2023-02-28T08:58:34.911Z,92.60
2023-02-28T09:03:38.122Z,93.30
2023-02-28T09:08:41.775Z,92.80
2023-02-28T09:13:47.780Z,90.90
2023-02-28T09:18:51.349Z,92.00
2023-02-28T09:23:56.579Z,92.40
2023-02-28T09:29:07.545Z,92.10
2023-02-28T09:34:12.434Z,91.90
2023-02-28T09:39:18.564Z,91.50
2023-02-28T09:44:25.797Z,92.10
2023-02-28T09:49:31.777Z,90.70
2023-02-28T09:54:36.033Z,90.80
2023-02-28T09:59:44.867Z,90.40
2023-02-28T10:04:56.635Z,90.20
2023-02-28T10:10:00.245Z,90.00
2023-02-28T10:15:05.197Z,85.90
2023-02-28T10:20:12.478Z,86.70
2023-02-28T10:25:21.016Z,84.40
2023-02-28T10:30:27.207Z,86.20
2023-02-28T10:35:30.507Z,86.20
2023-02-28T10:40:36.355Z,82.60
2023-02-28T10:45:42.797Z,82.00
2023-02-28T10:50:46.971Z,80.70
2023-02-28T10:55:58.135Z,78.00
2023-02-28T11:01:06.176Z,79.80
2023-02-28T11:06:10.623Z,80.20
2023-02-28T11:11:13.817Z,78.30
2023-02-28T11:16:18.273Z,76.50
2023-02-28T11:21:22.913Z,74.80
2023-02-28T11:26:45.380Z,73.30
2023-02-28T11:32:13.858Z,76.00
2023-02-28T11:37:19.206Z,76.00
2023-02-28T11:42:31.536Z,73.40
2023-02-28T11:47:37.110Z,74.00
2023-02-28T11:52:44.924Z,74.10
2023-02-28T11:57:59.152Z,73.80
2023-02-28T12:03:05.732Z,74.50
2023-02-28T12:08:30.486Z,75.20
2023-02-28T12:14:04.640Z,73.20
2023-02-28T12:19:33.468Z,72.70
2023-02-28T12:25:00.780Z,73.30
2023-02-28T12:30:22.656Z,71.80
2023-02-28T12:35:37.209Z,66.90
2023-02-28T12:40:50.575Z,66.60
2023-02-28T12:45:56.703Z,66.30
2023-02-28T12:51:02.935Z,69.90
2023-02-28T12:56:19.104Z,71.00
2023-02-28T13:02:00.052Z,67.20
2023-02-28T13:07:22.142Z,65.10
2023-02-28T13:12:29.046Z,66.20
2023-02-28T13:17:33.303Z,67.20
2023-02-28T13:22:41.286Z,67.30
2023-02-28T13:27:48.657Z,63.70
2023-02-28T13:33:29.922Z,63.20
2023-02-28T13:38:38.973Z,61.50
2023-02-28T13:44:32.832Z,59.30
2023-02-28T13:49:38.140Z,59.90
2023-02-28T13:54:54.360Z,60.30
2023-02-28T14:00:09.055Z,62.60
2023-02-28T14:10:27.757Z,62.60
2023-02-28T14:15:41.964Z,60.90
2023-02-28T14:20:45.539Z,63.00
2023-02-28T14:25:55.200Z,62.00
2023-02-28T14:31:08.843Z,62.80
2023-02-28T14:36:21.735Z,62.10
2023-02-28T14:41:26.781Z,62.10
2023-02-28T14:46:41.035Z,61.20
2023-02-28T14:51:46.609Z,61.90
2023-02-28T14:56:55.185Z,62.00
2023-02-28T15:02:24.244Z,61.10
2023-02-28T15:07:31.555Z,59.20
2023-02-28T15:12:36.709Z,59.50
2023-02-28T15:17:42.008Z,60.70
2023-02-28T15:22:46.691Z,60.20
2023-02-28T15:27:52.043Z,60.10
2023-02-28T15:33:09.540Z,61.00
2023-02-28T15:38:19.047Z,61.70
2023-02-28T15:43:28.104Z,61.20
2023-02-28T15:48:58.774Z,62.40
2023-02-28T15:54:03.637Z,65.50
2023-02-28T15:59:07.872Z,63.40
2023-02-28T16:04:18.209Z,64.50
2023-02-28T16:09:23.925Z,64.60
2023-02-28T16:14:34.381Z,64.70
2023-02-28T16:19:41.432Z,65.20
2023-02-28T16:24:45.492Z,66.20
2023-02-28T16:29:51.707Z,66.30
2023-02-28T16:34:57.439Z,65.70
2023-02-28T16:40:02.403Z,66.80
2023-02-28T16:45:07.029Z,67.60
2023-02-28T16:50:15.916Z,67.70
2023-02-28T16:55:19.403Z,68.30
2023-02-28T17:00:23.171Z,68.70
2023-02-28T17:05:39.905Z,71.50
2023-02-28T17:10:44.396Z,74.70
2023-02-28T17:15:50.206Z,76.10
2023-02-28T17:20:55.629Z,77.10
2023-02-28T17:26:00.237Z,77.50
2023-02-28T17:31:03.957Z,78.60
2023-02-28T17:36:12.815Z,78.60
2023-02-28T17:41:16.762Z,79.00
2023-02-28T17:46:21.729Z,79.60
2023-02-28T17:51:27.242Z,79.60
2023-02-28T17:56:32.466Z,80.30
2023-02-28T18:01:38.046Z,81.10
2023-02-28T18:06:51.983Z,81.70
2023-02-28T18:11:58.819Z,81.80
2023-02-28T18:17:02.352Z,83.00
2023-02-28T18:22:09.338Z,83.40
2023-02-28T18:27:13.004Z,83.80
2023-02-28T18:32:17.126Z,83.10
2023-02-28T18:37:23.804Z,84.10
2023-02-28T18:42:27.513Z,84.00
2023-02-28T18:47:32.253Z,85.20
2023-02-28T18:52:37.118Z,86.80
2023-02-28T18:57:40.420Z,86.70
2023-02-28T19:02:45.975Z,88.20
2023-02-28T19:07:51.170Z,88.40
2023-02-28T19:12:55.911Z,88.30
2023-02-28T19:18:01.062Z,88.70
2023-02-28T19:23:06.104Z,88.00
2023-02-28T19:28:10.800Z,87.50
2023-02-28T19:33:14.527Z,86.90
2023-02-28T19:38:22.422Z,87.80
2023-02-28T19:43:26.065Z,88.40
2023-02-28T19:48:30.098Z,88.10
2023-02-28T19:53:35.515Z,88.10
2023-02-28T19:58:39.389Z,87.20
2023-02-28T20:03:43.197Z,87.10
2023-02-28T20:08:48.144Z,87.50
2023-02-28T20:13:53.980Z,87.20
2023-02-28T20:18:57.364Z,87.20
2023-02-28T20:24:02.979Z,87.30
2023-02-28T20:29:06.651Z,87.40
2023-02-28T20:34:10.695Z,88.30
2023-02-28T20:39:15.762Z,87.80
2023-02-28T20:44:19.529Z,87.70
2023-02-28T20:49:23.285Z,87.80
2023-02-28T20:54:30.429Z,87.70
2023-02-28T20:59:34.345Z,87.50
2023-02-28T21:04:37.997Z,88.10
2023-02-28T21:09:43.080Z,87.10
2023-02-28T21:14:46.765Z,88.50
2023-02-28T21:19:50.524Z,88.60
2023-02-28T21:24:55.988Z,89.70
2023-02-28T21:30:00.705Z,89.10
2023-02-28T21:35:04.794Z,90.40
2023-02-28T21:40:11.133Z,90.00
2023-02-28T21:45:14.616Z,89.50
2023-02-28T21:50:18.384Z,90.30
2023-02-28T21:55:23.296Z,90.40
2023-02-28T22:00:27.436Z,90.50
2023-02-28T22:05:31.361Z,90.50
2023-02-28T22:10:36.466Z,90.70
2023-02-28T22:15:41.106Z,90.70
2023-02-28T22:20:44.220Z,90.20
2023-02-28T22:25:49.035Z,90.20
2023-02-28T22:30:53.189Z,90.20
2023-02-28T22:35:56.586Z,90.30
2023-02-28T22:41:01.532Z,90.30
2023-02-28T22:46:07.629Z,90.40
2023-02-28T22:51:12.621Z,90.20
2023-02-28T22:56:18.294Z,90.30
2023-02-28T23:01:22.213Z,90.50
2023-02-28T23:06:28.403Z,90.40
2023-02-28T23:11:35.739Z,90.80
2023-02-28T23:16:39.952Z,90.90
2023-02-28T23:21:43.308Z,91.00
2023-02-28T23:26:49.123Z,90.80
2023-02-28T23:31:52.469Z,90.90
2023-02-28T23:36:56.057Z,90.80
2023-02-28T23:42:03.343Z,91.10
2023-02-28T23:47:07.298Z,91.10
2023-02-28T23:52:16.846Z,90.90
2023-02-28T23:57:22.028Z,91.20
